Saturday, August 02, 2014
08:43 UTC
  |  Log In   |  Register Free
Airport Search:

Williamsburg-Jamestown Airport
(KJGG)

Williamsburg-Jamestown Airport Diagram
No Airport Diagram Available

FAA data valid effective July 24, 2014 until September 18, 2014 (unless otherwise noted).

 
 
 
 
 
 
 
 
 
 
 
 
 
 

Current Aviation Weather for Williamsburg-Jamestown Airport (KJGG)

The most recent METAR observation for KJGG was updated at: 1835 UTC
METAR Summary (Translated METAR)
KJGG
281835Z AUTO 28012G20KT 10SM SCT055 32/18 A2972 RMK AO1
KFAF
(8.2 nm SE from KJGG)
281758Z AUTO 28011KT 10SM FEW060 SCT090 29/18 A2969 RMK AO2 SLP057 T02910184 10306 20265 50003 $
TAF Summary (Translated TAF)
KFAF
(8.2 nm SE from KJGG)
0201/0224 VRB06KT 8000 -RA BKN007 OVC100 QNH3010INS BECMG 0205/0206 14006KT 8000 -SHRA OVC015 QNH3008INS BECMG 0210/0211 18009KT 6000 -SHRA BR BKN010 OVC120 QNH3007INS TX25/0219Z TN19/0211Z AMD 020107 LAST NO AMDS AFT 0203 NEXT 0410
KPHF
(12.5 nm SE from KJGG)
020536Z 0206/0306 04008KT 5SM -RA BR SCT007 OVC015 TEMPO 0206/0208 BKN007 FM021400 22010G15KT P6SM SCT015 OVC040 FM021900 20009KT 5SM -RA SCT012 OVC030
  Airport Weather Conditions for KJGG

 Current Weather at JGG
68° F
Overcast
North winds at 5.8 mph
JGG NOAA Radar

Pressure: 30.08 in
Humidity: 94%
Wind: North at 5.8 MPH (5 KT)
Dew Point: 66.2°F
Visibility: 5.00 mi


Airport Weather Forecast for KJGG

Translated METAR and TAF for KJGG
Translated METAR for KJGG (0836 UTC 02 August 2014)
found at http://aviationweather.gov/adds/metars/
 
METAR text: KJGG 020815Z AUTO 02005KT 7SM OVC027 20/19 A3008 RMK AO1
Conditions at: KJGG (WILLIAMSBURG , VA, US) observed 0815 UTC 02 August 2014
Temperature: 20.0°C (68°F)
Dewpoint: 19.0°C (66°F) [RH = 94%]
Pressure (altimeter): 30.08 inches Hg (1018.7 mb)
Winds: from the NNE (20 degrees) at 6 MPH (5 knots; 2.6 m/s)
Visibility: 7 miles (11 km)
Ceiling: 2700 feet AGL
Clouds: overcast cloud deck at 2700 feet AGL
Weather: automated observation with no human augmentation;
there may or may not be significant weather present at this time
Translated TAF for KJGG

There is no translated TAF available for this airport

Find All Airport Services Find A Hotel Find A Rental Car Find A Golf Course Find A Restaurant $100 Hamburger



FBO's on the Field
FBO Company Facility Photos Services Transportation Aviation Fuel Prices: Prices include tax
Catering Weather Repair Courtesy Rental Type 100LL JetA JetA+ MOGAS 8087
 
Williamsburg-Jamestown

This FBO has not yet been rated
FS:Shell
Last Updated: Jun-30
Login to update fuel prices
SS:
Contact Williamsburg-JamestownMore FBO Information
 
Add another FBO Facility Photos Catering Weather Repair Courtesy Rental Type 100LL JetA JetA+ MOGAS 8087
Services Transportation Aviation Fuel Prices: Prices include tax


GlobalAir.com Airport Resource Center model-print
model-print
model-print
model-print